createdAt,value
2023-05-20T00:01:34.628Z,14.42
2023-05-20T00:04:01.347Z,14.40
2023-05-20T00:06:27.940Z,14.37
2023-05-20T00:08:55.737Z,14.27
2023-05-20T00:11:22.241Z,14.27
2023-05-20T00:13:49.692Z,14.46
2023-05-20T00:16:16.287Z,14.46
2023-05-20T00:18:42.848Z,14.43
2023-05-20T00:21:09.380Z,14.41
2023-05-20T00:23:35.956Z,14.47
2023-05-20T00:26:02.490Z,14.33
2023-05-20T00:28:28.982Z,14.42
2023-05-20T00:30:56.465Z,14.53
2023-05-20T00:33:22.940Z,14.30
2023-05-20T00:35:49.571Z,14.26
2023-05-20T00:38:16.098Z,14.36
2023-05-20T00:40:42.577Z,14.33
2023-05-20T00:43:11.424Z,14.36
2023-05-20T00:45:38.848Z,14.32
2023-05-20T00:48:07.226Z,14.31
2023-05-20T00:50:33.955Z,14.26
2023-05-20T00:53:00.635Z,14.27
2023-05-20T00:55:27.471Z,14.00
2023-05-20T00:57:54.903Z,14.26
2023-05-20T01:00:21.441Z,14.24
2023-05-20T01:02:48.157Z,14.14
2023-05-20T01:05:14.829Z,14.14
2023-05-20T01:07:41.978Z,13.93
2023-05-20T01:10:09.659Z,13.89
2023-05-20T01:12:42.640Z,13.86
2023-05-20T01:15:11.297Z,13.98
2023-05-20T01:17:47.702Z,13.89
2023-05-20T01:20:15.260Z,13.75
2023-05-20T01:22:48.200Z,13.64
2023-05-20T01:25:14.790Z,13.71
2023-05-20T01:27:41.802Z,13.72
2023-05-20T01:30:08.939Z,13.64
2023-05-20T01:32:41.131Z,13.74
2023-05-20T01:35:08.842Z,13.50
2023-05-20T01:37:40.989Z,13.63
2023-05-20T01:40:09.592Z,13.60
2023-05-20T01:42:38.907Z,13.52
2023-05-20T01:45:06.239Z,13.47
2023-05-20T01:47:32.790Z,13.50
2023-05-20T01:49:59.327Z,13.28
2023-05-20T01:52:25.961Z,13.38
2023-05-20T01:54:53.596Z,13.49
2023-05-20T01:57:21.935Z,13.37
2023-05-20T01:59:48.526Z,13.37
2023-05-20T02:02:15.480Z,13.56
2023-05-20T02:04:48.063Z,13.45
2023-05-20T02:07:18.934Z,13.42
2023-05-20T02:09:47.690Z,13.29
2023-05-20T02:12:17.147Z,13.19
2023-05-20T02:14:45.573Z,13.36
2023-05-20T02:17:12.861Z,13.26
2023-05-20T02:19:41.986Z,13.34
2023-05-20T02:22:08.560Z,13.45
2023-05-20T02:27:34.185Z,13.34
2023-05-20T02:30:01.246Z,13.22
2023-05-20T02:32:28.982Z,13.25
2023-05-20T02:34:55.748Z,13.32
2023-05-20T02:37:22.269Z,13.16
2023-05-20T02:39:49.312Z,13.18
2023-05-20T02:42:15.912Z,13.19
2023-05-20T02:44:45.486Z,13.27
2023-05-20T02:47:14.145Z,13.23
2023-05-20T02:49:40.791Z,13.17
2023-05-20T02:52:08.848Z,13.02
2023-05-20T02:54:35.349Z,13.13
2023-05-20T02:57:02.306Z,13.10
2023-05-20T02:59:28.792Z,13.04
2023-05-20T03:01:55.356Z,13.11
2023-05-20T03:04:21.992Z,13.17
2023-05-20T03:06:52.847Z,13.08
2023-05-20T03:09:19.608Z,13.03
2023-05-20T03:11:47.672Z,13.04
2023-05-20T03:14:14.216Z,13.11
2023-05-20T03:16:41.144Z,13.02
2023-05-20T03:19:07.804Z,13.08
2023-05-20T03:21:35.456Z,13.07
2023-05-20T03:24:01.940Z,13.02
2023-05-20T03:26:28.546Z,12.97
2023-05-20T03:28:57.030Z,13.10
2023-05-20T03:31:23.606Z,13.21
2023-05-20T03:33:50.087Z,13.01
2023-05-20T03:36:20.984Z,13.08
2023-05-20T03:38:47.499Z,12.93
2023-05-20T03:41:14.078Z,13.05
2023-05-20T03:43:40.649Z,13.04
2023-05-20T03:46:08.253Z,12.84
2023-05-20T03:48:34.863Z,13.01
2023-05-20T03:51:01.977Z,13.18
2023-05-20T03:53:28.602Z,13.12
2023-05-20T03:55:55.173Z,12.96
2023-05-20T03:58:22.270Z,13.12
2023-05-20T04:00:49.332Z,13.03
2023-05-20T04:03:15.860Z,13.04
2023-05-20T04:05:42.425Z,13.15
2023-05-20T04:08:09.928Z,13.19
2023-05-20T04:10:36.833Z,13.34
2023-05-20T04:13:03.442Z,13.31
2023-05-20T04:15:30.811Z,13.26
2023-05-20T04:17:57.381Z,13.26
2023-05-20T04:20:24.437Z,13.17
2023-05-20T04:22:51.148Z,13.20
2023-05-20T04:25:18.066Z,13.23
2023-05-20T04:27:44.754Z,13.20
2023-05-20T04:30:12.108Z,13.31
2023-05-20T04:32:38.861Z,13.38
2023-05-20T04:35:11.492Z,13.28
2023-05-20T04:37:38.443Z,13.46
2023-05-20T04:40:12.599Z,13.30
2023-05-20T04:42:39.711Z,13.33
2023-05-20T04:45:08.792Z,13.40
2023-05-20T04:47:39.328Z,13.42
2023-05-20T04:50:10.605Z,13.50
2023-05-20T04:52:42.026Z,13.68
2023-05-20T04:55:10.271Z,14.12
2023-05-20T04:57:39.629Z,14.86
2023-05-20T05:00:07.906Z,15.55
2023-05-20T05:02:35.904Z,16.36
2023-05-20T05:05:02.561Z,16.49
2023-05-20T05:07:30.195Z,16.67
2023-05-20T05:09:56.728Z,16.83
2023-05-20T05:12:23.570Z,17.18
2023-05-20T05:14:50.129Z,17.17
2023-05-20T05:17:16.701Z,17.51
2023-05-20T05:19:43.259Z,17.65
2023-05-20T05:22:09.770Z,17.92
2023-05-20T05:24:36.242Z,17.83
2023-05-20T05:27:02.770Z,18.17
2023-05-20T05:29:29.300Z,18.70
2023-05-20T05:31:56.036Z,19.20
2023-05-20T05:34:22.588Z,18.89
2023-05-20T05:36:49.112Z,18.36
2023-05-20T05:39:15.753Z,18.21
2023-05-20T05:41:42.233Z,18.21
2023-05-20T05:44:08.730Z,18.14
2023-05-20T05:46:35.244Z,18.26
2023-05-20T05:49:01.817Z,18.77
2023-05-20T05:51:29.087Z,18.88
2023-05-20T05:53:56.142Z,18.53
2023-05-20T05:56:22.640Z,18.57
2023-05-20T05:58:49.409Z,19.26
2023-05-20T06:01:16.134Z,19.49
2023-05-20T06:03:42.830Z,20.14
2023-05-20T06:06:09.503Z,20.46
2023-05-20T06:08:36.003Z,19.68
2023-05-20T06:11:02.683Z,20.10
2023-05-20T06:13:29.236Z,20.36
2023-05-20T06:15:55.739Z,20.45
2023-05-20T06:18:22.215Z,20.79
2023-05-20T06:20:55.702Z,20.72
2023-05-20T06:23:22.235Z,20.50
2023-05-20T06:25:49.235Z,20.25
2023-05-20T06:28:15.722Z,20.55
2023-05-20T06:30:42.360Z,20.54
2023-05-20T06:33:08.937Z,20.66
2023-05-20T06:35:35.821Z,20.53
2023-05-20T06:38:03.103Z,20.64
2023-05-20T06:40:29.599Z,20.49
2023-05-20T06:42:56.216Z,20.35
2023-05-20T06:45:22.826Z,20.15
2023-05-20T06:47:50.068Z,20.69
2023-05-20T06:50:16.710Z,20.57
2023-05-20T06:52:43.298Z,20.19
2023-05-20T06:55:10.329Z,19.62
2023-05-20T06:57:36.983Z,19.70
2023-05-20T07:00:05.936Z,20.18
2023-05-20T07:02:33.797Z,20.16
2023-05-20T07:05:00.365Z,20.59
2023-05-20T07:07:26.890Z,20.69
2023-05-20T07:09:55.034Z,20.19
2023-05-20T07:12:21.518Z,20.96
2023-05-20T07:14:50.189Z,21.54
2023-05-20T07:17:16.732Z,21.86
2023-05-20T07:19:43.384Z,22.12
2023-05-20T07:22:09.941Z,22.54
2023-05-20T07:24:36.830Z,21.61
2023-05-20T07:27:04.028Z,21.34
2023-05-20T07:29:31.735Z,21.23
2023-05-20T07:31:58.416Z,21.15
2023-05-20T07:34:25.029Z,21.51
2023-05-20T07:36:51.711Z,21.30
2023-05-20T07:39:18.196Z,21.68
2023-05-20T07:41:44.823Z,21.19
2023-05-20T07:44:12.683Z,21.24
2023-05-20T07:46:40.077Z,21.48
2023-05-20T07:49:06.633Z,21.69
2023-05-20T07:51:33.169Z,22.36
2023-05-20T07:53:59.903Z,22.69
2023-05-20T07:56:26.486Z,22.92
2023-05-20T07:58:55.338Z,22.48
2023-05-20T08:01:22.135Z,22.53
2023-05-20T08:03:48.663Z,23.10
2023-05-20T08:06:15.792Z,23.49
2023-05-20T08:08:43.075Z,22.92
2023-05-20T08:11:10.115Z,22.95
2023-05-20T08:13:37.696Z,22.53
2023-05-20T08:16:05.830Z,22.48
2023-05-20T08:18:34.190Z,22.11
2023-05-20T08:21:00.913Z,22.73
2023-05-20T08:23:27.437Z,22.37
2023-05-20T08:25:53.950Z,23.04
2023-05-20T08:28:22.755Z,22.63
2023-05-20T08:30:50.265Z,21.98
2023-05-20T08:33:17.813Z,22.37
2023-05-20T08:35:44.366Z,22.61
2023-05-20T08:38:10.883Z,22.08
2023-05-20T08:40:37.374Z,21.83
2023-05-20T08:43:04.535Z,21.80
2023-05-20T08:45:35.051Z,21.18
2023-05-20T08:48:02.787Z,21.59
2023-05-20T08:50:29.318Z,21.88
2023-05-20T08:52:57.993Z,22.34
2023-05-20T08:55:37.930Z,22.70
2023-05-20T08:58:05.233Z,22.86
2023-05-20T09:00:32.215Z,22.43
2023-05-20T09:03:01.335Z,22.48
2023-05-20T09:05:28.106Z,22.47
2023-05-20T09:08:06.470Z,22.22
2023-05-20T09:10:33.657Z,22.33
2023-05-20T09:13:04.479Z,21.81
2023-05-20T09:15:32.518Z,21.95
2023-05-20T09:18:03.997Z,21.81
2023-05-20T09:20:32.339Z,21.71
2023-05-20T09:23:00.532Z,22.62
2023-05-20T09:25:29.016Z,22.50
2023-05-20T09:27:56.674Z,22.35
2023-05-20T09:30:23.864Z,21.68
2023-05-20T09:32:58.096Z,21.29
2023-05-20T09:35:28.184Z,21.21
2023-05-20T09:37:57.353Z,21.52
2023-05-20T09:40:28.289Z,22.48
2023-05-20T09:43:01.703Z,22.25
2023-05-20T09:45:28.602Z,22.69
2023-05-20T09:47:56.828Z,22.59
2023-05-20T09:50:24.790Z,23.01
2023-05-20T09:52:52.731Z,23.00
2023-05-20T09:55:21.002Z,21.63
2023-05-20T09:57:47.516Z,22.01
2023-05-20T10:00:17.380Z,22.33
2023-05-20T10:02:46.473Z,21.90
2023-05-20T10:05:25.867Z,22.06
2023-05-20T10:07:59.900Z,22.09
2023-05-20T10:11:05.897Z,21.84
2023-05-20T10:13:53.212Z,21.63
2023-05-20T10:16:37.920Z,21.91
2023-05-20T10:19:23.208Z,21.72
2023-05-20T10:22:04.473Z,21.35
2023-05-20T10:24:33.646Z,21.75
2023-05-20T10:27:03.676Z,22.26
2023-05-20T10:29:30.716Z,22.71
2023-05-20T10:31:57.293Z,22.73
2023-05-20T10:34:23.961Z,22.62
2023-05-20T10:36:57.556Z,22.65
2023-05-20T10:39:29.492Z,22.83
2023-05-20T10:42:09.426Z,22.25
2023-05-20T10:44:46.059Z,21.95
2023-05-20T10:49:47.406Z,22.43
2023-05-20T10:52:14.546Z,23.01
2023-05-20T10:54:47.723Z,23.41
2023-05-20T10:57:15.533Z,23.41
2023-05-20T10:59:42.349Z,22.99
2023-05-20T11:02:12.621Z,23.28
2023-05-20T11:04:39.603Z,23.19
2023-05-20T11:07:06.267Z,23.19
2023-05-20T11:09:33.974Z,23.11
2023-05-20T11:12:00.821Z,23.13
2023-05-20T11:14:30.206Z,22.81
2023-05-20T11:16:58.745Z,23.07
2023-05-20T11:19:26.868Z,23.05
2023-05-20T11:21:54.036Z,23.33
2023-05-20T11:24:28.706Z,23.59
2023-05-20T11:26:57.577Z,23.59
2023-05-20T11:29:26.565Z,23.75
2023-05-20T11:31:53.184Z,23.72
2023-05-20T11:34:25.780Z,23.90
2023-05-20T11:36:59.158Z,23.70
2023-05-20T11:39:29.973Z,23.45
2023-05-20T11:41:57.692Z,23.33
2023-05-20T11:44:24.814Z,23.50
2023-05-20T11:46:51.354Z,23.46
2023-05-20T11:49:17.905Z,23.36
2023-05-20T11:51:45.520Z,23.75
2023-05-20T11:54:12.162Z,23.96
2023-05-20T11:56:41.420Z,24.43
2023-05-20T11:59:10.618Z,24.30
2023-05-20T12:01:43.210Z,24.25
2023-05-20T12:04:10.435Z,24.26
2023-05-20T12:06:37.485Z,24.24
2023-05-20T12:09:08.782Z,23.95
2023-05-20T12:11:42.478Z,23.93
2023-05-20T12:14:09.742Z,24.16
2023-05-20T12:16:37.399Z,24.08
2023-05-20T12:19:04.525Z,24.47
2023-05-20T12:21:31.610Z,24.88
2023-05-20T12:24:01.109Z,24.69
2023-05-20T12:26:28.766Z,24.97
2023-05-20T12:28:56.228Z,24.96
2023-05-20T12:31:22.873Z,25.09
2023-05-20T12:33:49.525Z,25.16
2023-05-20T12:36:16.426Z,24.99
2023-05-20T12:38:43.303Z,25.01
2023-05-20T12:41:09.888Z,25.19
2023-05-20T12:43:37.621Z,25.46
2023-05-20T12:46:06.592Z,25.12
2023-05-20T12:48:33.195Z,25.06
2023-05-20T12:51:00.117Z,24.98
2023-05-20T12:53:26.582Z,25.17
2023-05-20T12:55:53.345Z,25.33
2023-05-20T12:58:19.880Z,25.38
2023-05-20T13:00:46.448Z,25.08
2023-05-20T13:03:13.112Z,25.01
2023-05-20T13:05:39.801Z,25.09
2023-05-20T13:08:06.379Z,24.86
2023-05-20T13:10:33.599Z,25.08
2023-05-20T13:13:00.363Z,25.10
2023-05-20T13:15:26.932Z,25.15
2023-05-20T13:17:54.673Z,25.38
2023-05-20T13:20:21.568Z,25.08
2023-05-20T13:22:54.271Z,24.81
2023-05-20T13:25:21.111Z,25.18
2023-05-20T13:27:47.641Z,25.19
2023-05-20T13:30:14.152Z,25.32
2023-05-20T13:32:41.762Z,25.23
2023-05-20T13:35:09.192Z,25.30
2023-05-20T13:37:35.690Z,25.51
2023-05-20T13:40:02.262Z,25.50
2023-05-20T13:42:28.790Z,25.60
2023-05-20T13:44:55.268Z,25.60
2023-05-20T13:47:22.119Z,25.43
2023-05-20T13:49:48.667Z,25.39
2023-05-20T13:52:15.276Z,25.78
2023-05-20T13:54:43.027Z,25.54
2023-05-20T13:57:10.633Z,25.82
2023-05-20T13:59:38.641Z,25.80
2023-05-20T14:02:05.513Z,25.77
2023-05-20T14:04:36.856Z,25.99
2023-05-20T14:07:03.684Z,25.74
2023-05-20T14:09:30.231Z,25.50
2023-05-20T14:11:56.807Z,25.77
2023-05-20T14:14:23.296Z,25.35
2023-05-20T14:16:49.782Z,25.15
2023-05-20T14:19:16.272Z,25.11
2023-05-20T14:21:42.817Z,24.78
2023-05-20T14:24:09.561Z,24.82
2023-05-20T14:26:36.346Z,24.36
2023-05-20T14:29:03.050Z,24.55
2023-05-20T14:31:29.624Z,24.56
2023-05-20T14:34:02.549Z,24.54
2023-05-20T14:36:29.213Z,24.54
2023-05-20T14:38:55.733Z,24.16
2023-05-20T14:41:22.455Z,24.46
2023-05-20T14:43:49.002Z,24.45
2023-05-20T14:46:16.044Z,24.25
2023-05-20T14:48:43.739Z,24.57
2023-05-20T14:51:10.338Z,24.58
2023-05-20T14:53:36.862Z,24.48
2023-05-20T14:56:03.483Z,24.55
2023-05-20T14:58:30.082Z,24.51
2023-05-20T15:00:56.987Z,24.59
2023-05-20T15:03:24.485Z,24.88
2023-05-20T15:05:52.126Z,24.64
2023-05-20T15:08:18.655Z,24.71
2023-05-20T15:10:45.285Z,24.58
2023-05-20T15:13:12.006Z,24.39
2023-05-20T15:15:38.546Z,24.30
2023-05-20T15:18:05.113Z,24.57
2023-05-20T15:20:31.694Z,24.49
2023-05-20T15:22:59.839Z,24.33
2023-05-20T15:25:27.663Z,24.39
2023-05-20T15:27:55.882Z,24.36
2023-05-20T15:30:22.921Z,24.38
2023-05-20T15:32:49.650Z,24.37
2023-05-20T15:35:16.291Z,24.64
2023-05-20T15:37:42.805Z,24.48
2023-05-20T15:40:09.965Z,24.63
2023-05-20T15:42:36.492Z,24.59
2023-05-20T15:45:03.151Z,24.89
2023-05-20T15:47:29.730Z,24.88
2023-05-20T15:49:57.435Z,24.88
2023-05-20T15:52:24.542Z,24.67
2023-05-20T15:54:51.153Z,24.81
2023-05-20T15:57:17.679Z,24.43
2023-05-20T15:59:44.200Z,24.55
2023-05-20T16:02:10.780Z,24.28
2023-05-20T16:04:37.445Z,24.46
2023-05-20T16:07:04.126Z,24.39
2023-05-20T16:09:31.109Z,24.28
2023-05-20T16:11:57.789Z,24.27
2023-05-20T16:14:24.400Z,24.22
2023-05-20T16:16:51.009Z,23.96
2023-05-20T16:19:17.757Z,23.98
2023-05-20T16:21:44.668Z,24.12
2023-05-20T16:24:11.161Z,23.58
2023-05-20T16:26:38.013Z,23.95
2023-05-20T16:29:04.531Z,23.98
2023-05-20T16:31:31.091Z,24.04
2023-05-20T16:33:58.080Z,23.94
2023-05-20T16:36:24.615Z,23.93
2023-05-20T16:38:51.395Z,24.07
2023-05-20T16:41:18.105Z,24.17
2023-05-20T16:43:44.739Z,23.80
2023-05-20T16:46:12.907Z,23.79
2023-05-20T16:48:40.157Z,23.75
2023-05-20T16:51:06.823Z,23.71
2023-05-20T16:53:33.326Z,23.48
2023-05-20T16:55:59.968Z,23.70
2023-05-20T16:58:26.746Z,23.68
2023-05-20T17:00:55.152Z,23.70
2023-05-20T17:03:21.907Z,23.66
2023-05-20T17:05:48.391Z,23.50
2023-05-20T17:08:15.021Z,23.48
2023-05-20T17:10:41.536Z,23.59
2023-05-20T17:13:08.033Z,23.63
2023-05-20T17:15:37.101Z,23.17
2023-05-20T17:18:04.731Z,23.24
2023-05-20T17:20:32.056Z,23.49
2023-05-20T17:22:58.984Z,23.56
2023-05-20T17:25:25.581Z,23.13
2023-05-20T17:27:52.096Z,23.05
2023-05-20T17:30:19.862Z,23.05
2023-05-20T17:32:46.517Z,23.07
2023-05-20T17:35:13.165Z,22.95
2023-05-20T17:37:39.799Z,23.05
2023-05-20T17:40:06.853Z,22.92
2023-05-20T17:42:33.685Z,22.71
2023-05-20T17:45:00.431Z,22.91
2023-05-20T17:47:28.017Z,22.88
2023-05-20T17:49:54.633Z,22.49
2023-05-20T17:52:21.188Z,22.60
2023-05-20T17:54:48.774Z,22.64
2023-05-20T17:57:15.538Z,22.54
2023-05-20T17:59:42.141Z,22.64
2023-05-20T18:02:08.939Z,22.53
2023-05-20T18:04:35.819Z,22.57
2023-05-20T18:07:03.972Z,22.35
2023-05-20T18:09:31.914Z,22.34
2023-05-20T18:11:58.430Z,22.17
2023-05-20T18:14:26.583Z,22.37
2023-05-20T18:17:00.229Z,22.41
2023-05-20T18:19:26.842Z,22.17
2023-05-20T18:21:53.540Z,22.08
2023-05-20T18:24:20.581Z,21.93
2023-05-20T18:26:48.177Z,22.01
2023-05-20T18:29:14.810Z,21.89
2023-05-20T18:31:43.383Z,21.84
2023-05-20T18:34:10.785Z,21.93
2023-05-20T18:36:37.524Z,21.77
2023-05-20T18:39:04.800Z,21.58
2023-05-20T18:41:43.267Z,21.44
2023-05-20T18:44:13.955Z,21.60
2023-05-20T18:46:40.577Z,21.56
2023-05-20T18:49:07.157Z,21.41
2023-05-20T18:51:33.900Z,21.47
2023-05-20T18:54:00.509Z,21.40
2023-05-20T18:56:27.435Z,21.37
2023-05-20T18:58:55.049Z,21.20
2023-05-20T19:01:21.956Z,20.96
2023-05-20T19:03:48.493Z,21.08
2023-05-20T19:06:16.506Z,21.28
2023-05-20T19:08:43.802Z,21.21
2023-05-20T19:11:11.416Z,20.97
2023-05-20T19:13:38.224Z,20.95
2023-05-20T19:16:04.934Z,21.07
2023-05-20T19:18:31.550Z,20.91
2023-05-20T19:20:58.070Z,20.96
2023-05-20T19:23:24.729Z,20.92
2023-05-20T19:25:51.311Z,21.10
2023-05-20T19:28:17.973Z,20.68
2023-05-20T19:30:44.544Z,20.58
2023-05-20T19:33:11.196Z,20.61
2023-05-20T19:35:37.774Z,20.66
2023-05-20T19:38:05.866Z,20.64
2023-05-20T19:40:32.626Z,20.57
2023-05-20T19:42:59.471Z,20.42
2023-05-20T19:45:26.055Z,20.43
2023-05-20T19:47:52.642Z,20.39
2023-05-20T19:50:19.297Z,20.42
2023-05-20T19:52:45.954Z,20.32
2023-05-20T19:55:12.570Z,20.30
2023-05-20T19:57:39.079Z,20.26
2023-05-20T20:00:07.255Z,20.11
2023-05-20T20:02:33.863Z,20.05
2023-05-20T20:05:01.197Z,20.25
2023-05-20T20:07:27.811Z,20.05
2023-05-20T20:09:55.371Z,20.04
2023-05-20T20:12:22.490Z,20.13
2023-05-20T20:14:49.219Z,20.16
2023-05-20T20:17:17.533Z,20.03
2023-05-20T20:19:48.687Z,20.00
2023-05-20T20:22:16.471Z,19.98
2023-05-20T20:24:42.974Z,19.99
2023-05-20T20:27:09.543Z,19.93
2023-05-20T20:29:36.286Z,19.78
2023-05-20T20:32:03.833Z,19.91
2023-05-20T20:34:30.486Z,19.77
2023-05-20T20:36:57.131Z,19.80
2023-05-20T20:39:25.118Z,19.73
2023-05-20T20:41:52.795Z,19.63
2023-05-20T20:44:22.578Z,19.59
2023-05-20T20:46:54.754Z,19.46
2023-05-20T20:49:23.056Z,19.40
2023-05-20T20:51:51.010Z,19.52
2023-05-20T20:54:17.619Z,19.53
2023-05-20T20:56:46.907Z,19.32
2023-05-20T20:59:15.623Z,19.39
2023-05-20T21:01:42.480Z,19.36
2023-05-20T21:04:13.710Z,19.44
2023-05-20T21:06:42.149Z,19.31
2023-05-20T21:09:09.424Z,19.15
2023-05-20T21:11:38.341Z,19.20
2023-05-20T21:14:06.536Z,19.19
2023-05-20T21:16:33.095Z,19.12
2023-05-20T21:18:59.668Z,19.13
2023-05-20T21:21:26.218Z,19.09
2023-05-20T21:23:54.197Z,19.12
2023-05-20T21:26:24.803Z,18.94
2023-05-20T21:28:52.486Z,18.98
2023-05-20T21:31:19.830Z,18.91
2023-05-20T21:33:46.566Z,18.88
2023-05-20T21:36:13.105Z,18.84
2023-05-20T21:38:39.927Z,18.79
2023-05-20T21:41:06.558Z,18.76
2023-05-20T21:43:33.101Z,18.82
2023-05-20T21:45:59.631Z,18.71
2023-05-20T21:48:27.121Z,18.55
2023-05-20T21:50:53.660Z,18.62
2023-05-20T21:53:21.291Z,18.67
2023-05-20T21:55:47.804Z,18.57
2023-05-20T21:58:14.372Z,18.54
2023-05-20T22:00:41.085Z,18.60
2023-05-20T22:03:07.748Z,18.59
2023-05-20T22:05:34.714Z,18.55
2023-05-20T22:08:01.910Z,18.53
2023-05-20T22:10:28.503Z,18.43
2023-05-20T22:12:55.627Z,18.47
2023-05-20T22:15:23.034Z,18.39
2023-05-20T22:17:49.769Z,18.36
2023-05-20T22:20:16.363Z,18.33
2023-05-20T22:22:42.863Z,18.36
2023-05-20T22:25:12.345Z,18.38
2023-05-20T22:27:39.115Z,18.31
2023-05-20T22:30:08.187Z,18.15
2023-05-20T22:32:34.711Z,18.24
2023-05-20T22:35:01.207Z,18.13
2023-05-20T22:37:28.900Z,18.18
2023-05-20T22:39:56.329Z,18.14
2023-05-20T22:42:22.893Z,18.18
2023-05-20T22:44:49.771Z,18.09
2023-05-20T22:47:16.356Z,18.18
2023-05-20T22:49:42.878Z,18.08
2023-05-20T22:52:09.403Z,18.03
2023-05-20T22:54:35.888Z,18.09
2023-05-20T22:57:02.854Z,18.15
2023-05-20T22:59:32.877Z,18.10
2023-05-20T23:01:59.393Z,18.01
2023-05-20T23:04:26.139Z,18.05
2023-05-20T23:06:53.778Z,17.92
2023-05-20T23:09:21.087Z,17.99
2023-05-20T23:11:47.658Z,17.94
2023-05-20T23:14:14.292Z,17.93
2023-05-20T23:16:42.191Z,17.90
2023-05-20T23:19:09.891Z,17.84
2023-05-20T23:21:37.394Z,17.60
2023-05-20T23:24:04.515Z,17.68
2023-05-20T23:26:31.515Z,17.76
2023-05-20T23:28:58.144Z,17.63
2023-05-20T23:31:26.846Z,17.74
2023-05-20T23:33:58.093Z,17.73
2023-05-20T23:36:25.734Z,17.64
2023-05-20T23:38:55.077Z,17.60
2023-05-20T23:41:22.388Z,17.41
2023-05-20T23:43:49.126Z,17.39
2023-05-20T23:46:15.830Z,17.32
2023-05-20T23:48:44.761Z,17.44
2023-05-20T23:51:13.652Z,17.36
2023-05-20T23:53:41.459Z,17.35
2023-05-20T23:56:09.287Z,17.34
2023-05-20T23:58:36.343Z,17.22
